Time;durP1;ratioP1;P1;durP2;ratioP2;P2;SDS_P1;SDS_P2;PMS_P1;PMS_P2;Temp;Humidity;BMP_temperature;BMP_pressure;BME280_temperature;BME280_humidity;BME280_pressure;Samples;Min_cycle;Max_cycle;Signal;HPM_P1;HPM_P2
2022/04/02 00:02:00;;;;;;;5.93;5.53;;;;;;;3.04;93.37;93833.38;4328177;32;20285;-60
2022/04/02 00:04:28;;;;;;;6.63;6.23;;;;;;;3.02;93.86;93832.88;4330078;32;20296;-60
2022/04/02 00:07:00;;;;;;;5.73;5.43;;;;;;;3.02;94.27;93825.81;4325086;32;20306;-60
2022/04/02 00:09:27;;;;;;;6.27;5.87;;;;;;;3.19;93.59;93827.16;4335608;32;20289;-60
2022/04/02 00:11:54;;;;;;;6.97;6.57;;;;;;;3.12;93.34;93825.66;4344795;32;20290;-60
2022/04/02 00:14:26;;;;;;;6.53;6.13;;;;;;;3.10;93.12;93821.78;4352513;32;20350;-61
2022/04/02 00:16:54;;;;;;;6.13;5.80;;;;;;;2.96;93.61;93831.38;4361797;32;20289;-60
2022/04/02 00:19:23;;;;;;;5.57;5.27;;;;;;;2.93;94.33;93832.72;4346404;32;20282;-60
2022/04/02 00:21:50;;;;;;;6.17;5.80;;;;;;;2.99;94.17;93825.59;4342254;32;20289;-60
2022/04/02 00:24:18;;;;;;;6.37;5.97;;;;;;;3.12;93.58;93824.88;4327785;32;20298;-60
2022/04/02 00:26:45;;;;;;;6.37;5.97;;;;;;;2.91;93.90;93823.62;4311671;32;20286;-60
2022/04/02 00:29:11;;;;;;;6.43;5.90;;;;;;;2.88;94.87;93824.97;4349713;32;20285;-65
2022/04/02 00:31:41;;;;;;;6.10;5.70;;;;;;;2.90;94.46;93816.81;4340027;32;20299;-60
2022/04/02 00:34:08;;;;;;;6.07;5.67;;;;;;;3.08;94.51;93821.28;4339537;32;20185;-60
2022/04/02 00:36:38;;;;;;;6.50;6.10;;;;;;;2.94;94.23;93821.19;4332415;32;20270;-60
2022/04/02 00:39:25;;;;;;;5.67;5.37;;;;;;;2.74;95.45;93824.84;4333517;32;20420;-60
2022/04/02 00:41:51;;;;;;;5.07;4.77;;;;;;;3.27;94.04;93819.44;4324410;32;20410;-60
2022/04/02 00:44:17;;;;;;;4.80;4.53;;;;;;;2.97;93.85;93827.72;4340335;32;20281;-60
2022/04/02 00:46:50;;;;;;;4.33;4.03;;;;;;;3.07;93.85;93812.66;4338315;32;20335;-61
2022/04/02 00:49:17;;;;;;;4.23;4.03;;;;;;;2.97;93.72;93817.22;4340895;32;20200;-60
2022/04/02 00:51:45;;;;;;;4.40;4.20;;;;;;;3.11;93.53;93818.09;4338813;32;20372;-61
2022/04/02 00:54:14;;;;;;;3.90;3.70;;;;;;;3.20;93.67;93812.97;4335928;32;20285;-62
2022/04/02 00:56:43;;;;;;;3.27;3.07;;;;;;;3.17;93.43;93811.72;4311266;32;20285;-60
2022/04/02 00:59:10;;;;;;;2.70;2.60;;;;;;;3.18;93.23;93818.50;4315628;32;20278;-60
2022/04/02 01:01:37;;;;;;;2.67;2.40;;;;;;;3.18;93.19;93817.72;4331102;32;20294;-61
2022/04/02 01:04:07;;;;;;;2.30;2.20;;;;;;;3.22;93.60;93814.25;4350698;32;20277;-60
2022/04/02 01:06:35;;;;;;;2.20;2.10;;;;;;;3.12;93.83;93817.00;4328502;32;20300;-60
2022/04/02 01:09:02;;;;;;;2.00;1.90;;;;;;;3.15;93.19;93813.81;4289566;32;20365;-60
2022/04/02 01:11:40;;;;;;;2.00;1.90;;;;;;;2.97;93.66;93825.09;4316546;32;20288;-60
2022/04/02 01:14:07;;;;;;;1.97;1.87;;;;;;;3.08;93.81;93819.44;4368738;32;20304;-60
2022/04/02 01:16:37;;;;;;;1.67;1.60;;;;;;;2.98;93.41;93824.81;4332087;32;20372;-60
2022/04/02 01:19:05;;;;;;;1.60;1.60;;;;;;;3.14;93.41;93822.75;4345206;32;20296;-60
2022/04/02 01:21:32;;;;;;;1.70;1.70;;;;;;;3.24;92.79;93822.63;4355452;32;20348;-61
2022/04/02 01:23:58;;;;;;;1.80;1.70;;;;;;;3.15;92.86;93819.06;4340861;32;20345;-61
2022/04/02 01:26:35;;;;;;;2.20;2.10;;;;;;;3.18;93.00;93828.97;4350191;32;20285;-60
2022/04/02 01:29:01;;;;;;;2.27;2.17;;;;;;;3.23;92.95;93825.53;4357872;32;20281;-60
2022/04/02 01:31:28;;;;;;;2.40;2.30;;;;;;;3.26;91.97;93825.72;4356995;32;20296;-60
2022/04/02 01:33:55;;;;;;;2.60;2.50;;;;;;;3.38;92.17;93830.53;4355675;32;20277;-60
2022/04/02 01:36:25;;;;;;;2.80;2.70;;;;;;;3.13;93.02;93831.66;4338914;32;20305;-60
2022/04/02 01:38:52;;;;;;;4.07;3.87;;;;;;;3.16;93.42;93831.09;4339745;32;20282;-60
2022/04/02 01:41:20;;;;;;;5.90;5.50;;;;;;;3.14;93.27;93841.09;4360089;32;20307;-60
2022/04/02 01:43:46;;;;;;;5.30;4.93;;;;;;;3.14;91.62;93841.09;4338476;32;20304;-60
2022/04/02 01:46:16;;;;;;;6.37;5.97;;;;;;;3.23;92.15;93842.03;4345095;32;20277;-60
2022/04/02 01:48:45;;;;;;;7.20;6.70;;;;;;;3.19;91.45;93841.03;4350797;32;20359;-61
2022/04/02 01:51:12;;;;;;;7.53;7.03;;;;;;;3.06;91.93;93842.53;4357751;32;20324;-60
2022/04/02 01:53:39;;;;;;;7.67;7.17;;;;;;;2.97;92.65;93838.97;4334445;32;20342;-60
2022/04/02 01:56:10;;;;;;;8.23;7.63;;;;;;;2.96;93.00;93842.63;4353719;32;20344;-60
2022/04/02 01:58:36;;;;;;;8.75;8.15;;;;;;;2.94;92.80;93838.75;4350045;32;20305;-60
2022/04/02 02:01:11;;;;;;;9.07;8.37;;;;;;;2.82;93.50;93851.47;4303260;32;21662;-60
2022/04/02 02:03:37;;;;;;;9.33;8.63;;;;;;;2.86;93.71;93847.25;4354114;32;20280;-60
2022/04/02 02:06:07;;;;;;;9.37;8.57;;;;;;;3.00;93.44;93837.63;4337809;32;20304;-60
2022/04/02 02:08:34;;;;;;;9.50;8.70;;;;;;;3.07;93.14;93853.78;4360560;32;20331;-60
2022/04/02 02:11:01;;;;;;;9.40;8.60;;;;;;;3.04;92.36;93843.84;4333970;32;20340;-60
2022/04/02 02:13:28;;;;;;;11.80;10.80;;;;;;;2.91;92.10;93855.03;4327551;32;20293;-60
2022/04/02 02:15:55;;;;;;;10.07;9.32;;;;;;;2.80;93.32;93851.75;4361542;32;20289;-60
2022/04/02 02:18:23;;;;;;;11.23;10.23;;;;;;;2.78;93.83;93850.47;4357815;32;20292;-60
2022/04/02 02:20:50;;;;;;;11.33;10.33;;;;;;;2.66;93.96;93845.66;4344215;32;20305;-60
2022/04/02 02:23:18;;;;;;;12.13;11.02;;;;;;;2.68;94.08;93851.38;4346592;32;20286;-60
2022/04/02 02:25:43;;;;;;;11.00;10.00;;;;;;;2.83;94.16;93847.81;4334702;32;20190;-60
2022/04/02 02:28:10;;;;;;;10.97;9.97;;;;;;;3.08;93.65;93850.87;4350362;32;20325;-61
2022/04/02 02:30:36;;;;;;;11.07;10.03;;;;;;;3.06;92.77;93857.44;4349711;32;20211;-59
2022/04/02 02:35:51;;;;;;;11.90;10.90;;;;;;;2.86;92.08;93858.50;4309892;33;20301;-60
2022/04/02 02:38:24;;;;;;;12.80;11.60;;;;;;;2.67;93.41;93861.09;4337683;32;20282;-60
2022/04/02 02:40:51;;;;;;;12.53;11.47;;;;;;;2.73;93.22;93864.41;4333234;32;20286;-60
2022/04/02 02:43:20;;;;;;;13.40;12.10;;;;;;;2.61;93.21;93856.94;4319737;32;20285;-60
2022/04/02 02:45:47;;;;;;;12.17;11.17;;;;;;;2.55;93.37;93857.28;4313439;33;20297;-61
2022/04/02 02:48:13;;;;;;;10.53;9.67;;;;;;;2.60;93.31;93860.63;4358495;32;20269;-61
2022/04/02 02:50:39;;;;;;;11.60;10.60;;;;;;;2.42;93.26;93856.91;4321022;32;20274;-60
2022/04/02 02:53:05;;;;;;;11.60;10.60;;;;;;;2.47;94.13;93856.06;4279224;33;20265;-61
2022/04/02 02:55:31;;;;;;;12.17;10.97;;;;;;;2.70;93.84;93865.72;4348220;32;20276;-60
2022/04/02 02:57:56;;;;;;;12.77;11.47;;;;;;;2.37;93.68;93866.63;4345266;32;20332;-60
2022/04/02 03:00:23;;;;;;;12.70;10.73;;;;;;;2.20;94.16;93863.69;4313528;32;20323;-60
2022/04/02 03:02:50;;;;;;;12.85;11.65;;;;;;;2.17;94.77;93867.63;4330205;32;20216;-59
2022/04/02 03:05:17;;;;;;;11.55;10.55;;;;;;;2.14;94.56;93864.78;4341864;32;20181;-60
2022/04/02 03:07:54;;;;;;;11.98;10.88;;;;;;;2.27;94.25;93874.59;4348953;32;20227;-60
2022/04/02 03:10:29;;;;;;;12.55;11.35;;;;;;;2.05;94.29;93870.63;4345769;32;20185;-60
2022/04/02 03:13:01;;;;;;;12.05;10.98;;;;;;;2.12;94.67;93875.50;4349205;32;20250;-60
2022/04/02 03:15:29;;;;;;;12.48;11.38;;;;;;;1.93;94.33;93878.03;4336262;32;20181;-60
2022/04/02 03:18:06;;;;;;;11.75;10.75;;;;;;;1.87;95.21;93873.16;4344659;32;20198;-60
2022/04/02 03:20:33;;;;;;;11.48;10.48;;;;;;;2.04;94.92;93868.28;4336871;32;20290;-60
2022/04/02 03:22:59;;;;;;;12.13;11.02;;;;;;;1.91;94.71;93872.31;4334322;32;20232;-60
2022/04/02 03:25:26;;;;;;;12.53;11.17;;;;;;;2.03;94.78;93871.94;4339766;32;20206;-60
2022/04/02 03:27:56;;;;;;;12.20;11.00;;;;;;;2.11;94.95;93873.16;4327908;32;20332;-60
2022/04/02 03:30:25;;;;;;;11.43;10.43;;;;;;;2.16;94.15;93875.75;4336779;32;20223;-60
2022/04/02 03:32:52;;;;;;;11.18;10.20;;;;;;;2.02;94.06;93879.00;4320955;32;20232;-61
2022/04/02 03:35:19;;;;;;;11.48;10.52;;;;;;;1.98;94.31;93875.38;4326201;32;20269;-60
2022/04/02 03:37:47;;;;;;;11.60;10.48;;;;;;;1.98;94.11;93880.63;4329709;32;20223;-60
2022/04/02 03:40:15;;;;;;;12.35;11.23;;;;;;;2.05;94.90;93882.91;4335455;32;20206;-60
2022/04/02 03:42:44;;;;;;;11.60;10.60;;;;;;;2.06;94.30;93881.88;4352358;32;20189;-60
2022/04/02 03:45:16;;;;;;;12.00;10.90;;;;;;;1.97;94.48;93888.72;4326869;32;20192;-60
2022/04/02 03:47:42;;;;;;;12.95;11.65;;;;;;;1.95;94.54;93891.62;4324814;32;20296;-61
2022/04/02 03:50:10;;;;;;;13.35;12.23;;;;;;;1.92;94.24;93886.94;4323969;32;20204;-60
2022/04/02 03:52:37;;;;;;;11.93;10.88;;;;;;;1.78;94.42;93886.00;4306470;33;20292;-60
2022/04/02 03:55:08;;;;;;;11.73;10.75;;;;;;;1.85;95.23;93886.50;4336952;32;20242;-60
2022/04/02 03:57:36;;;;;;;12.45;11.25;;;;;;;1.93;94.80;93887.72;4357694;32;20193;-60
2022/04/02 04:00:06;;;;;;;11.18;10.18;;;;;;;1.95;95.34;93890.84;4346321;32;20267;-60
2022/04/02 04:02:34;;;;;;;10.65;9.65;;;;;;;2.06;94.36;93908.00;4347187;32;20253;-61
2022/04/02 04:05:12;;;;;;;10.13;9.40;;;;;;;2.08;94.43;93896.19;4341634;32;20189;-60
2022/04/02 04:07:39;;;;;;;11.18;10.20;;;;;;;1.97;93.88;93907.81;4331791;32;20224;-60
2022/04/02 04:10:06;;;;;;;10.45;9.45;;;;;;;1.88;94.82;93908.66;4347820;32;20282;-60
2022/04/02 04:12:32;;;;;;;10.90;9.85;;;;;;;1.66;94.33;93909.13;4343174;32;20287;-61
2022/04/02 04:14:58;;;;;;;9.93;9.13;;;;;;;1.71;94.82;93911.66;4348675;32;20188;-61
2022/04/02 04:17:24;;;;;;;10.25;9.40;;;;;;;1.78;94.43;93913.97;4347190;32;20204;-61
2022/04/02 04:19:50;;;;;;;9.65;8.73;;;;;;;1.63;94.61;93920.09;4345279;32;20211;-61
2022/04/02 04:22:17;;;;;;;9.70;8.90;;;;;;;1.73;95.11;93920.03;4343944;32;20189;-61
2022/04/02 04:24:45;;;;;;;11.12;10.07;;;;;;;1.83;94.68;93922.56;4351028;32;20194;-61
2022/04/02 04:27:11;;;;;;;10.77;9.50;;;;;;;1.71;93.86;93927.34;4338174;32;20185;-61
2022/04/02 04:29:41;;;;;;;9.90;9.00;;;;;;;1.68;94.32;93923.44;4356309;32;20201;-60
2022/04/02 04:32:08;;;;;;;9.75;8.85;;;;;;;1.94;93.93;93929.28;4362664;32;20189;-60
2022/04/02 04:34:34;;;;;;;11.45;10.25;;;;;;;1.84;92.84;93931.19;4364465;32;20197;-61
2022/04/02 04:37:02;;;;;;;10.27;9.38;;;;;;;1.79;93.42;93934.63;4343099;32;20197;-61
2022/04/02 04:39:28;;;;;;;9.82;8.93;;;;;;;1.71;93.04;93941.19;4310745;32;20243;-61
2022/04/02 04:41:55;;;;;;;9.85;8.95;;;;;;;1.54;93.48;93943.41;4346682;32;20223;-61
2022/04/02 04:44:22;;;;;;;9.60;8.80;;;;;;;1.61;93.72;93940.50;4349357;32;20215;-61
2022/04/02 04:46:48;;;;;;;12.10;10.75;;;;;;;1.69;92.97;93940.69;4320426;32;20197;-61
2022/04/02 04:49:15;;;;;;;11.07;9.90;;;;;;;1.77;93.20;93941.97;4350282;32;20189;-61
2022/04/02 04:51:44;;;;;;;10.82;9.88;;;;;;;1.72;92.92;93947.22;4342874;32;20253;-60
2022/04/02 04:54:14;;;;;;;10.10;9.10;;;;;;;1.60;92.87;93952.00;4299444;32;20205;-61
2022/04/02 04:56:40;;;;;;;13.30;9.25;;;;;;;1.54;93.33;93953.06;4326217;32;20206;-61
2022/04/02 04:59:08;;;;;;;10.70;9.70;;;;;;;1.60;93.79;93955.41;4344637;32;20264;-61
2022/04/02 05:01:36;;;;;;;11.18;10.15;;;;;;;1.39;92.87;93961.78;4322284;32;20204;-61
2022/04/02 05:04:01;;;;;;;10.30;9.18;;;;;;;1.33;93.36;93965.47;4342920;32;20254;-61
2022/04/02 05:06:28;;;;;;;12.17;9.90;;;;;;;1.09;93.93;93967.91;4316874;32;20193;-61
2022/04/02 05:08:57;;;;;;;10.50;9.50;;;;;;;1.05;94.69;93977.34;4353963;32;20197;-61
2022/04/02 05:11:24;;;;;;;12.82;10.45;;;;;;;1.28;94.28;93970.72;4353405;32;20256;-61
2022/04/02 05:13:52;;;;;;;10.70;9.68;;;;;;;1.42;94.05;93970.94;4349749;32;20232;-61
2022/04/02 05:16:19;;;;;;;10.30;9.32;;;;;;;1.50;93.99;93980.78;4348693;32;20214;-61
2022/04/02 05:18:44;;;;;;;13.48;9.52;;;;;;;1.60;92.67;93991.97;4338516;32;20232;-61
2022/04/02 05:21:20;;;;;;;10.40;9.27;;;;;;;1.57;92.51;93982.06;4337019;32;20251;-61
2022/04/02 05:23:47;;;;;;;11.12;8.60;;;;;;;1.57;92.36;93982.06;4310924;32;20299;-63
2022/04/02 05:26:12;;;;;;;9.82;8.82;;;;;;;1.50;92.53;93984.19;4343861;32;20200;-63
2022/04/02 05:28:39;;;;;;;9.70;8.70;;;;;;;1.47;92.58;93994.37;4350134;32;20193;-61
2022/04/02 05:31:11;;;;;;;10.68;9.50;;;;;;;1.58;92.27;93988.84;4332270;32;20208;-60
2022/04/02 05:33:39;;;;;;;11.88;8.98;;;;;;;1.61;92.25;93998.78;4344349;32;20193;-60
2022/04/02 05:36:08;;;;;;;12.25;9.35;;;;;;;1.57;91.78;93994.34;4357528;32;21787;-60
2022/04/02 05:38:37;;;;;;;13.70;8.98;;;;;;;1.60;92.25;94005.06;4338385;32;20237;-61
2022/04/02 05:41:09;;;;;;;10.85;8.30;;;;;;;1.60;92.28;94002.44;4349795;32;20257;-61
2022/04/02 05:43:36;;;;;;;11.25;9.63;;;;;;;1.36;91.78;94010.13;4345990;32;20208;-60
2022/04/02 05:46:09;;;;;;;11.68;9.60;;;;;;;1.42;92.30;94007.50;4377863;32;20336;-60
2022/04/02 05:48:36;;;;;;;11.18;10.05;;;;;;;1.44;91.81;94023.69;4353011;32;20204;-60
2022/04/02 05:51:05;;;;;;;11.60;9.35;;;;;;;1.32;92.22;94021.38;4347428;32;20225;-60
2022/04/02 05:53:30;;;;;;;14.60;10.07;;;;;;;1.35;92.18;94023.44;4363733;32;20188;-61
2022/04/02 05:55:56;;;;;;;10.70;9.60;;;;;;;1.50;92.46;94036.44;4353140;32;20204;-60
2022/04/02 05:58:24;;;;;;;12.10;10.87;;;;;;;1.24;92.34;94035.78;4343006;32;20225;-60
2022/04/02 06:00:51;;;;;;;11.65;10.45;;;;;;;1.12;93.02;94030.06;4301752;33;20305;-61
2022/04/02 06:03:20;;;;;;;16.42;10.95;;;;;;;1.21;94.15;94036.31;4328634;32;20232;-61
2022/04/02 06:05:49;;;;;;;14.57;10.55;;;;;;;1.35;93.74;94032.06;4305192;32;20177;-60
2022/04/02 06:08:16;;;;;;;14.07;11.65;;;;;;;1.32;92.55;94040.44;4333841;32;20254;-60
2022/04/02 06:10:44;;;;;;;12.25;11.05;;;;;;;1.28;93.09;94049.84;4327641;32;20199;-61
2022/04/02 06:13:11;;;;;;;16.00;10.98;;;;;;;1.11;93.04;94048.59;4324941;32;20193;-61
2022/04/02 06:15:38;;;;;;;15.38;11.10;;;;;;;1.08;93.31;94047.31;4337297;32;20189;-61
2022/04/02 06:18:06;;;;;;;17.83;11.63;;;;;;;1.24;93.65;94048.06;4337011;32;20287;-61
2022/04/02 06:20:33;;;;;;;12.50;11.23;;;;;;;1.33;92.75;94052.44;4339100;32;20225;-61
2022/04/02 06:23:05;;;;;;;17.80;12.75;;;;;;;1.11;92.85;94056.44;4343537;32;20231;-60
2022/04/02 06:25:33;;;;;;;15.98;11.60;;;;;;;1.10;92.84;94063.47;4356866;32;20184;-60
2022/04/02 06:27:59;;;;;;;17.35;11.68;;;;;;;1.26;93.12;94070.22;4333488;32;20186;-60
2022/04/02 06:30:30;;;;;;;12.60;11.20;;;;;;;1.22;92.36;94071.03;4360178;32;20212;-61
2022/04/02 06:33:00;;;;;;;12.27;10.98;;;;;;;1.38;92.31;94078.56;4341126;32;20212;-61
2022/04/02 06:35:28;;;;;;;13.52;11.25;;;;;;;1.45;91.45;94080.13;4357389;32;20209;-60
2022/04/02 06:37:56;;;;;;;13.32;10.95;;;;;;;1.42;91.76;94085.87;4344666;32;20235;-61
2022/04/02 06:40:24;;;;;;;15.70;11.70;;;;;;;1.36;91.71;94088.50;4329474;32;20189;-60
2022/04/02 06:42:52;;;;;;;12.35;11.05;;;;;;;1.49;91.99;94086.34;4320874;33;20251;-61
2022/04/02 06:45:18;;;;;;;15.40;10.95;;;;;;;1.38;91.77;94086.41;4335896;32;20228;-61
2022/04/02 06:47:44;;;;;;;13.85;11.57;;;;;;;1.10;92.11;94083.59;4320109;32;20194;-61
2022/04/02 06:50:13;;;;;;;14.40;11.17;;;;;;;1.08;92.74;94088.28;4328039;32;20213;-61
2022/04/02 06:52:40;;;;;;;16.17;10.77;;;;;;;1.25;93.20;94092.16;4310412;32;20268;-61
2022/04/02 06:55:16;;;;;;;17.27;12.03;;;;;;;1.27;91.99;94094.50;4340011;32;20237;-61
2022/04/02 06:57:49;;;;;;;13.10;11.12;;;;;;;1.11;92.92;94096.38;4319465;32;20213;-60
2022/04/02 07:00:16;;;;;;;11.77;10.57;;;;;;;1.26;92.56;94098.94;4331430;32;20205;-61
2022/04/02 07:02:44;;;;;;;17.62;11.20;;;;;;;1.23;92.12;94103.94;4341341;32;20200;-60
2022/04/02 07:05:12;;;;;;;14.80;11.27;;;;;;;1.28;92.50;94111.75;4335760;32;20189;-61
2022/04/02 07:07:38;;;;;;;12.15;10.52;;;;;;;1.48;92.37;94106.47;4334450;32;20203;-62
2022/04/02 07:10:06;;;;;;;12.20;11.00;;;;;;;1.47;91.47;94114.56;4331036;32;20336;-61
2022/04/02 07:12:33;;;;;;;12.45;10.48;;;;;;;1.62;91.94;94119.75;4326400;32;20270;-61
2022/04/02 07:15:02;;;;;;;14.30;11.55;;;;;;;1.68;91.49;94122.06;4340169;32;20199;-61
2022/04/02 07:17:28;;;;;;;17.35;12.20;;;;;;;1.86;91.04;94131.19;4329009;32;20194;-60
2022/04/02 07:19:58;;;;;;;14.98;10.30;;;;;;;4.25;100.00;94111.50;4359919;32;20181;-60
2022/04/02 07:22:25;;;;;;;11.07;9.63;;;;;;;4.58;98.18;94120.22;4298184;32;20213;-60
2022/04/02 07:24:55;;;;;;;14.20;10.07;;;;;;;4.40;90.98;94123.63;4327451;32;20321;-60
2022/04/02 07:27:31;;;;;;;12.27;9.23;;;;;;;4.89;90.81;94125.00;4333990;32;20286;-60
2022/04/02 07:29:58;;;;;;;14.60;9.50;;;;;;;4.70;84.04;94136.31;4331629;32;20289;-60
2022/04/02 07:32:24;;;;;;;12.07;9.27;;;;;;;4.27;82.89;94142.72;4302228;32;20293;-60
2022/04/02 07:34:52;;;;;;;14.40;10.03;;;;;;;3.95;85.71;94152.00;4330748;32;20200;-61
2022/04/02 07:37:36;;;;;;;17.30;10.67;;;;;;;4.69;92.03;94145.28;4337543;32;20286;-60
2022/04/02 07:40:24;;;;;;;16.13;10.63;;;;;;;4.01;87.18;94163.22;4337985;32;20304;-60
2022/04/02 07:43:24;;;;;;;13.47;11.17;;;;;;;3.07;83.31;94174.12;4328803;32;20303;-60
2022/04/02 07:46:04;;;;;;;12.93;9.93;;;;;;;2.65;83.72;94169.47;4352974;32;20285;-60
2022/04/02 07:48:39;;;;;;;14.70;9.30;;;;;;;2.53;83.84;94169.00;4316796;32;20289;-60
2022/04/02 07:51:30;;;;;;;11.20;9.35;;;;;;;2.28;84.48;94183.03;4349350;32;20419;-60
2022/04/02 07:54:02;;;;;;;10.52;9.13;;;;;;;2.06;85.59;94180.78;4337196;32;20193;-60
2022/04/02 07:56:36;;;;;;;16.17;12.80;;;;;;;2.19;86.26;94179.41;4339405;32;20188;-61
2022/04/02 07:59:09;;;;;;;15.52;11.00;;;;;;;2.10;86.78;94174.97;4343288;32;20215;-60
2022/04/02 08:01:39;;;;;;;15.20;9.93;;;;;;;2.37;86.04;94181.41;4311444;32;20306;-60
2022/04/02 08:04:11;;;;;;;14.32;10.90;;;;;;;2.28;85.33;94187.47;4329153;32;20327;-60
2022/04/02 08:06:39;;;;;;;10.98;9.90;;;;;;;2.24;87.17;94194.28;4345590;32;20268;-60
2022/04/02 08:09:07;;;;;;;15.50;10.93;;;;;;;2.25;86.99;94193.25;4355593;32;20304;-60
2022/04/02 08:11:38;;;;;;;11.57;10.35;;;;;;;2.68;87.07;94192.47;4339239;32;20284;-61
2022/04/02 08:14:06;;;;;;;11.38;10.15;;;;;;;2.59;86.50;94193.31;4314151;32;20276;-60
2022/04/02 08:16:42;;;;;;;13.40;10.38;;;;;;;2.82;86.38;94199.72;4322020;32;20231;-60
2022/04/02 08:19:11;;;;;;;10.50;9.47;;;;;;;2.78;85.69;94199.47;4302296;33;20197;-61
2022/04/02 08:21:39;;;;;;;13.53;12.07;;;;;;;2.64;86.37;94201.94;4326788;33;20400;-60
2022/04/02 08:24:09;;;;;;;12.30;9.60;;;;;;;2.29;86.29;94212.56;4326593;32;20321;-60
2022/04/02 08:27:03;;;;;;;12.65;10.50;;;;;;;2.27;87.08;94214.69;4318001;32;20464;-60
2022/04/02 08:29:38;;;;;;;16.75;11.00;;;;;;;2.22;87.23;94218.09;4331005;32;20181;-60
2022/04/02 08:32:29;;;;;;;13.55;10.13;;;;;;;2.28;88.56;94224.09;4324778;32;20260;-60
2022/04/02 08:35:10;;;;;;;10.57;8.52;;;;;;;2.40;86.92;94227.97;4348263;32;20196;-61
2022/04/02 08:37:41;;;;;;;9.45;8.57;;;;;;;2.16;86.47;94227.00;4318407;33;26264;-60
2022/04/02 08:40:32;;;;;;;9.15;8.30;;;;;;;2.12;87.50;94230.44;4335042;32;20319;-61
2022/04/02 08:43:50;;;;;;;15.18;9.73;;;;;;;2.20;87.09;94237.72;4314870;32;20193;-60
2022/04/02 08:46:46;;;;;;;12.77;9.13;;;;;;;2.12;88.29;94235.66;4285213;33;20200;-60
2022/04/02 08:49:24;;;;;;;13.27;9.40;;;;;;;2.10;88.07;94243.75;4318515;32;20237;-60
2022/04/02 08:52:22;;;;;;;15.52;9.88;;;;;;;2.05;88.00;94247.19;4357708;32;20192;-60
2022/04/02 08:55:13;;;;;;;16.15;10.77;;;;;;;2.08;88.69;94251.88;4262338;33;20205;-60
2022/04/02 08:58:11;;;;;;;15.52;9.68;;;;;;;2.16;87.78;94257.62;4278038;33;20232;-60
2022/04/02 09:01:06;;;;;;;15.52;10.55;;;;;;;2.01;87.55;94264.47;4349093;32;20207;-60
2022/04/02 09:04:17;;;;;;;12.52;9.75;;;;;;;2.06;89.10;94267.06;4364047;32;20256;-60
2022/04/02 09:07:11;;;;;;;13.93;9.65;;;;;;;2.31;89.06;94278.50;4267655;33;20182;-59
2022/04/02 09:10:34;;;;;;;10.43;9.45;;;;;;;2.17;87.07;94277.50;4285242;33;20266;-60
2022/04/02 09:13:56;;;;;;;12.85;9.00;;;;;;;2.28;87.23;94279.81;4229037;33;20238;-60
2022/04/02 09:16:47;;;;;;;10.00;8.57;;;;;;;2.55;85.67;94286.50;4230707;33;20192;-60
2022/04/02 09:19:30;;;;;;;9.77;8.82;;;;;;;2.60;85.81;94289.91;4346453;32;20208;-60
2022/04/02 09:22:29;;;;;;;15.10;9.32;;;;;;;2.64;87.12;94290.94;4354772;32;20208;-59
2022/04/02 09:25:16;;;;;;;10.33;8.83;;;;;;;3.14;87.88;94283.81;4359013;32;20193;-59
2022/04/02 09:28:16;;;;;;;11.33;8.17;;;;;;;3.97;89.24;94286.31;4361330;32;20274;-60
2022/04/02 09:31:21;;;;;;;10.37;8.47;;;;;;;3.84;81.85;94284.34;4299164;33;20282;-60
2022/04/02 09:34:17;;;;;;;7.43;6.73;;;;;;;3.86;81.22;94295.34;4301573;33;20274;-62
2022/04/02 09:37:20;;;;;;;9.30;8.40;;;;;;;3.94;82.60;94297.38;4333326;32;20309;-59
2022/04/02 09:40:09;;;;;;;8.30;7.57;;;;;;;3.90;81.21;94306.84;4345675;32;20274;-59
2022/04/02 09:42:42;;;;;;;7.37;6.77;;;;;;;3.55;81.05;94304.50;4316627;32;20377;-59
2022/04/02 09:45:27;;;;;;;9.50;7.37;;;;;;;3.55;80.93;94305.28;4326650;32;20365;-59
2022/04/02 09:48:28;;;;;;;7.87;7.17;;;;;;;3.72;80.61;94305.69;4321797;32;20313;-59
2022/04/02 09:50:56;;;;;;;7.47;6.67;;;;;;;3.71;82.53;94303.34;4323635;32;20270;-59
2022/04/02 09:53:29;;;;;;;7.33;6.63;;;;;;;3.93;78.74;94313.38;4338778;32;20347;-59
2022/04/02 09:56:17;;;;;;;7.17;6.47;;;;;;;3.69;78.97;94308.09;4335199;32;20296;-59
2022/04/02 09:59:17;;;;;;;7.60;6.93;;;;;;;3.79;79.17;94321.88;4331998;32;20340;-59
2022/04/02 10:02:04;;;;;;;7.27;6.60;;;;;;;3.72;79.44;94310.16;4338742;32;20286;-60
2022/04/02 10:05:01;;;;;;;6.77;6.23;;;;;;;3.48;79.99;94317.94;4320665;32;20305;-59
2022/04/02 10:07:45;;;;;;;7.23;6.70;;;;;;;3.67;80.23;94318.06;4305882;33;20305;-59
2022/04/02 10:10:11;;;;;;;7.50;6.90;;;;;;;3.45;81.03;94327.12;4334063;32;20289;-60
2022/04/02 10:13:00;;;;;;;11.50;7.87;;;;;;;3.33;81.47;94339.00;4341527;32;20289;-59
2022/04/02 10:15:28;;;;;;;8.47;7.77;;;;;;;3.28;81.97;94331.97;4306942;32;20293;-59
2022/04/02 10:17:54;;;;;;;9.63;8.73;;;;;;;3.20;82.54;94339.63;4306594;32;20381;-59
2022/04/02 10:20:28;;;;;;;9.70;8.73;;;;;;;3.16;81.59;94347.22;4331903;32;20301;-59
2022/04/02 10:23:24;;;;;;;10.63;9.53;;;;;;;2.92;81.42;94349.69;4294307;33;20225;-59
2022/04/02 10:26:19;;;;;;;14.67;11.63;;;;;;;2.92;83.02;94347.06;4306936;32;20343;-60
2022/04/02 10:29:06;;;;;;;12.80;10.90;;;;;;;2.86;81.59;94355.25;4343670;32;20308;-61
2022/04/02 10:32:21;;;;;;;11.67;10.47;;;;;;;2.66;83.13;94354.28;4343276;32;20277;-59
2022/04/02 10:34:48;;;;;;;10.30;8.33;;;;;;;2.75;83.57;94360.50;4329982;32;20289;-58
2022/04/02 10:37:18;;;;;;;13.20;9.38;;;;;;;2.75;83.27;94364.97;4341182;32;20281;-59
2022/04/02 10:40:08;;;;;;;10.65;9.73;;;;;;;2.57;84.01;94363.72;4347823;32;20212;-59
2022/04/02 10:42:51;;;;;;;12.97;11.10;;;;;;;2.81;83.84;94369.13;4345939;32;20236;-59
2022/04/02 10:45:20;;;;;;;16.63;11.03;;;;;;;2.92;82.61;94364.62;4315141;32;20292;-60
2022/04/02 10:47:49;;;;;;;18.57;15.97;;;;;;;2.83;82.56;94374.91;4314189;32;20319;-59
2022/04/02 10:50:17;;;;;;;19.07;13.73;;;;;;;2.80;83.04;94366.78;4323215;32;20281;-59
2022/04/02 10:52:47;;;;;;;21.17;16.20;;;;;;;2.76;83.65;94372.56;4344300;32;20296;-59
2022/04/02 10:55:22;;;;;;;17.00;14.43;;;;;;;2.66;83.89;94372.59;4355801;32;20270;-59
2022/04/02 10:57:53;;;;;;;15.65;11.02;;;;;;;2.52;85.50;94381.25;4328527;32;20269;-61
2022/04/02 11:00:28;;;;;;;12.52;10.68;;;;;;;2.44;84.30;94373.97;4334820;32;20173;-60
2022/04/02 11:03:19;;;;;;;12.40;11.10;;;;;;;2.54;85.94;94373.94;4357802;32;20232;-60
2022/04/02 11:05:47;;;;;;;10.73;9.38;;;;;;;2.67;85.10;94386.47;4333587;32;20242;-63
2022/04/02 11:08:13;;;;;;;12.20;10.00;;;;;;;2.61;84.88;94382.31;4341536;32;20193;-59
2022/04/02 11:10:48;;;;;;;21.37;13.95;;;;;;;2.60;84.61;94393.81;4326062;32;20205;-60
2022/04/02 11:13:29;;;;;;;15.40;11.07;;;;;;;2.66;83.63;94385.69;4348916;32;20197;-60
2022/04/02 11:15:57;;;;;;;12.52;10.00;;;;;;;2.52;84.52;94389.91;4358431;32;20196;-59
2022/04/02 11:18:24;;;;;;;11.25;10.20;;;;;;;2.44;82.63;94392.28;4339566;32;20194;-59
2022/04/02 11:20:52;;;;;;;11.68;9.73;;;;;;;2.31;83.88;94394.38;4339245;32;20247;-60
2022/04/02 11:23:47;;;;;;;9.90;8.95;;;;;;;2.39;85.03;94399.09;4348263;32;20190;-61
2022/04/02 11:26:18;;;;;;;9.90;8.65;;;;;;;2.56;84.21;94398.78;4322256;32;20279;-59
2022/04/02 11:28:44;;;;;;;10.18;9.13;;;;;;;2.61;83.30;94406.66;4349816;32;20217;-60
2022/04/02 11:31:23;;;;;;;12.88;8.63;;;;;;;2.51;83.82;94413.72;4347972;32;20260;-60
2022/04/02 11:33:52;;;;;;;12.00;8.55;;;;;;;2.30;83.84;94419.00;4346439;32;20189;-59
2022/04/02 11:36:23;;;;;;;11.82;9.75;;;;;;;2.38;83.63;94409.81;4318330;32;20180;-61
2022/04/02 11:39:00;;;;;;;12.85;10.05;;;;;;;2.31;84.46;94417.94;4304942;32;20189;-59
2022/04/02 11:41:31;;;;;;;13.50;9.32;;;;;;;2.56;84.98;94419.75;4299120;32;20268;-59
2022/04/02 11:44:17;;;;;;;10.65;9.52;;;;;;;2.44;83.79;94421.09;4345813;32;20211;-60
2022/04/02 11:47:06;;;;;;;11.65;9.05;;;;;;;2.59;83.80;94432.28;4357309;32;20189;-59
2022/04/02 11:49:39;;;;;;;10.65;9.55;;;;;;;2.49;84.16;94423.69;4357204;32;20253;-59
2022/04/02 11:52:11;;;;;;;10.00;9.00;;;;;;;2.54;85.52;94426.28;4338671;32;20189;-59
2022/04/02 11:55:01;;;;;;;15.30;9.75;;;;;;;2.44;86.18;94427.09;4360299;32;20212;-62
2022/04/02 11:57:28;;;;;;;9.90;9.20;;;;;;;2.45;86.40;94433.91;4343548;32;20208;-59
2022/04/02 11:59:58;;;;;;;14.48;10.70;;;;;;;2.54;86.42;94437.53;4312486;32;20237;-59
2022/04/02 12:02:35;;;;;;;12.15;11.05;;;;;;;2.41;87.54;94435.47;4321163;32;20328;-60